EFW16EA EGKK-LMML
Flight info
| Callsign | EFW16EA |
|---|---|
| Flight time | 2h 49m |
| Altitude | 35000 |
| Route | SFD Y47 BENBO L612 HAWKE UL612 OGULO DCT OKASI DCT OKEKO DCT MOU DCT MADIV DCT MOKIP DCT TUFTA DCT KOGAS DCT MEDAM DCT NITAM DCT MOGBO DCT BAKRO DCT RONAB DCT GIANO DCT MARON DCT EKOLA L12 GZO |
| Aircraft | A320/M-SDE3FGHIRWY/LB1 |
Departure
| Time | 2026-05-06 16:25 |
|---|---|
| Airport | London Gatwick Airport (EGKK) |
Arrival
| Time | 2026-05-06 19:14 |
|---|---|
| Airport | Malta International Airport (LMML) |
| Time | Latitude | Longitude | Altitude | Speed | Heading |
|---|---|---|---|---|---|
| 2026-05-06 15:55 | 51.15504 | -0.16840 | 199 ft | 0 kts | 347° |
| 2026-05-06 16:09 | 51.15501 | -0.16839 | 199 ft | 2 kts | 347° |
| 2026-05-06 16:09 | 51.15486 | -0.16834 | 199 ft | 2 kts | 347° |
| 2026-05-06 16:09 | 51.15472 | -0.16828 | 199 ft | 1 kts | 347° |
| 2026-05-06 16:09 | 51.15463 | -0.16825 | 199 ft | 1 kts | 330° |
| 2026-05-06 16:10 | 51.15453 | -0.16807 | 199 ft | 2 kts | 284° |
| 2026-05-06 16:10 | 51.15452 | -0.16793 | 199 ft | 1 kts | 259° |
| 2026-05-06 16:10 | 51.15454 | -0.16782 | 199 ft | 0 kts | 257° |
| 2026-05-06 16:12 | 51.15454 | -0.16787 | 199 ft | 3 kts | 257° |
| 2026-05-06 16:12 | 51.15438 | -0.16901 | 199 ft | 14 kts | 258° |
| 2026-05-06 16:13 | 51.15415 | -0.17073 | 199 ft | 18 kts | 256° |
| 2026-05-06 16:13 | 51.15374 | -0.17257 | 199 ft | 17 kts | 257° |
| 2026-05-06 16:13 | 51.15317 | -0.17388 | 199 ft | 15 kts | 221° |
| 2026-05-06 16:13 | 51.15284 | -0.17555 | 199 ft | 20 kts | 261° |
| 2026-05-06 16:14 | 51.15256 | -0.17770 | 199 ft | 18 kts | 257° |
| 2026-05-06 16:14 | 51.15226 | -0.17988 | 199 ft | 21 kts | 257° |
| 2026-05-06 16:14 | 51.15196 | -0.18211 | 199 ft | 20 kts | 258° |
| 2026-05-06 16:14 | 51.15177 | -0.18393 | 199 ft | 18 kts | 259° |
| 2026-05-06 16:15 | 51.15149 | -0.18609 | 199 ft | 21 kts | 258° |
| 2026-05-06 16:15 | 51.15115 | -0.18862 | 199 ft | 22 kts | 258° |
| 2026-05-06 16:15 | 51.15081 | -0.19100 | 199 ft | 20 kts | 258° |
| 2026-05-06 16:15 | 51.15025 | -0.19265 | 199 ft | 14 kts | 190° |
| 2026-05-06 16:16 | 51.14949 | -0.19376 | 199 ft | 19 kts | 257° |
| 2026-05-06 16:16 | 51.14922 | -0.19589 | 199 ft | 21 kts | 260° |
| 2026-05-06 16:16 | 51.14890 | -0.19822 | 199 ft | 23 kts | 257° |
| 2026-05-06 16:16 | 51.14856 | -0.20066 | 199 ft | 23 kts | 259° |
| 2026-05-06 16:17 | 51.14821 | -0.20321 | 199 ft | 24 kts | 259° |
| 2026-05-06 16:17 | 51.14785 | -0.20578 | 199 ft | 20 kts | 257° |
| 2026-05-06 16:17 | 51.14754 | -0.20804 | 199 ft | 17 kts | 258° |
| 2026-05-06 16:17 | 51.14728 | -0.20996 | 199 ft | 18 kts | 258° |
| 2026-05-06 16:18 | 51.14706 | -0.21154 | 199 ft | 13 kts | 257° |
| 2026-05-06 16:18 | 51.14695 | -0.21235 | 199 ft | 3 kts | 257° |
| 2026-05-06 16:18 | 51.14694 | -0.21238 | 199 ft | 0 kts | 257° |
| 2026-05-06 16:19 | 51.14685 | -0.21291 | 199 ft | 8 kts | 249° |
| 2026-05-06 16:19 | 51.14643 | -0.21334 | 199 ft | 8 kts | 178° |
| 2026-05-06 16:20 | 51.14616 | -0.21327 | 199 ft | 0 kts | 168° |
| 2026-05-06 16:22 | 51.14571 | -0.21304 | 199 ft | 13 kts | 155° |
| 2026-05-06 16:22 | 51.14518 | -0.21180 | 199 ft | 12 kts | 82° |
| 2026-05-06 16:23 | 51.14522 | -0.21152 | 199 ft | 0 kts | 78° |
| 2026-05-06 16:24 | 51.14522 | -0.21151 | 199 ft | 1 kts | 78° |
| 2026-05-06 16:24 | 51.14571 | -0.20806 | 199 ft | 65 kts | 77° |
| 2026-05-06 16:24 | 51.14714 | -0.19782 | 200 ft | 124 kts | 78° |
| 2026-05-06 16:25 | 51.14935 | -0.18160 | 260 ft | 166 kts | 77° |
| 2026-05-06 16:25 | 51.15149 | -0.16402 | 826 ft | 165 kts | 75° |
| 2026-05-06 16:25 | 51.15404 | -0.14616 | 1426 ft | 166 kts | 73° |
| 2026-05-06 16:25 | 51.15663 | -0.12841 | 1984 ft | 169 kts | 73° |
| 2026-05-06 16:26 | 51.15934 | -0.10980 | 2338 ft | 178 kts | 73° |
| 2026-05-06 16:26 | 51.16159 | -0.08963 | 2608 ft | 195 kts | 88° |
| 2026-05-06 16:26 | 51.15757 | -0.06828 | 2843 ft | 218 kts | 122° |
| 2026-05-06 16:26 | 51.14562 | -0.05203 | 3095 ft | 241 kts | 158° |
| 2026-05-06 16:27 | 51.12865 | -0.04565 | 3456 ft | 258 kts | 169° |
| 2026-05-06 16:27 | 51.11057 | -0.04036 | 3882 ft | 273 kts | 168° |
| 2026-05-06 16:27 | 51.09187 | -0.03388 | 4603 ft | 275 kts | 164° |
| 2026-05-06 16:27 | 51.07367 | -0.02559 | 5381 ft | 276 kts | 163° |
| 2026-05-06 16:28 | 51.05553 | -0.01702 | 6133 ft | 277 kts | 163° |
| 2026-05-06 16:28 | 51.03706 | -0.00825 | 6896 ft | 279 kts | 163° |
| 2026-05-06 16:28 | 51.01830 | 0.00064 | 7625 ft | 282 kts | 163° |
| 2026-05-06 16:28 | 50.99957 | 0.00950 | 8299 ft | 286 kts | 163° |
| 2026-05-06 16:29 | 50.98053 | 0.01850 | 8954 ft | 290 kts | 163° |
| 2026-05-06 16:29 | 50.96109 | 0.02769 | 9585 ft | 295 kts | 163° |
| 2026-05-06 16:29 | 50.94130 | 0.03703 | 10194 ft | 299 kts | 163° |
| 2026-05-06 16:29 | 50.92121 | 0.04651 | 10822 ft | 303 kts | 163° |
| 2026-05-06 16:30 | 50.90125 | 0.05593 | 11453 ft | 305 kts | 163° |
| 2026-05-06 16:30 | 50.88741 | 0.06245 | 11883 ft | 306 kts | 163° |
| 2026-05-06 16:30 | 50.86037 | 0.07515 | 12690 ft | 309 kts | 164° |
| 2026-05-06 16:30 | 50.83955 | 0.08490 | 13272 ft | 311 kts | 164° |
| 2026-05-06 16:31 | 50.81894 | 0.09453 | 13834 ft | 313 kts | 164° |
| 2026-05-06 16:31 | 50.79817 | 0.10424 | 14399 ft | 315 kts | 164° |
| 2026-05-06 16:31 | 50.77688 | 0.11396 | 14947 ft | 317 kts | 168° |
| 2026-05-06 16:31 | 50.75514 | 0.11771 | 15458 ft | 318 kts | 183° |
| 2026-05-06 16:32 | 50.73295 | 0.11295 | 15775 ft | 327 kts | 193° |
| 2026-05-06 16:32 | 50.71066 | 0.10480 | 15997 ft | 339 kts | 195° |
| 2026-05-06 16:32 | 50.68682 | 0.09568 | 16218 ft | 351 kts | 194° |
| 2026-05-06 16:32 | 50.66266 | 0.08655 | 16512 ft | 360 kts | 194° |
| 2026-05-06 16:33 | 50.63839 | 0.07757 | 16976 ft | 363 kts | 194° |
| 2026-05-06 16:33 | 50.61378 | 0.06858 | 17484 ft | 364 kts | 194° |
| 2026-05-06 16:33 | 50.58900 | 0.05960 | 17980 ft | 366 kts | 194° |
| 2026-05-06 16:34 | 50.53922 | 0.04165 | 18921 ft | 371 kts | 194° |
| 2026-05-06 16:34 | 50.51431 | 0.03270 | 19369 ft | 373 kts | 194° |
| 2026-05-06 16:34 | 50.48881 | 0.02354 | 19820 ft | 375 kts | 194° |
| 2026-05-06 16:34 | 50.46322 | 0.01804 | 20207 ft | 380 kts | 179° |
| 2026-05-06 16:35 | 50.43711 | 0.02629 | 20605 ft | 385 kts | 159° |
| 2026-05-06 16:35 | 50.41381 | 0.04683 | 21039 ft | 388 kts | 147° |
| 2026-05-06 16:35 | 50.39172 | 0.07040 | 21435 ft | 390 kts | 146° |
| 2026-05-06 16:35 | 50.36901 | 0.09466 | 21826 ft | 393 kts | 147° |
| 2026-05-06 16:36 | 50.34648 | 0.11829 | 22217 ft | 395 kts | 147° |
| 2026-05-06 16:36 | 50.32368 | 0.14194 | 22597 ft | 397 kts | 147° |
| 2026-05-06 16:36 | 50.30066 | 0.16571 | 22977 ft | 399 kts | 147° |
| 2026-05-06 16:36 | 50.27758 | 0.18947 | 23345 ft | 401 kts | 147° |
| 2026-05-06 16:37 | 50.25421 | 0.21349 | 23705 ft | 403 kts | 147° |
| 2026-05-06 16:37 | 50.23066 | 0.23766 | 24054 ft | 405 kts | 147° |
| 2026-05-06 16:37 | 50.20710 | 0.26180 | 24396 ft | 407 kts | 147° |
| 2026-05-06 16:37 | 50.18352 | 0.28601 | 24736 ft | 409 kts | 147° |
| 2026-05-06 16:38 | 50.15974 | 0.31045 | 25071 ft | 411 kts | 147° |
| 2026-05-06 16:38 | 50.13586 | 0.33498 | 25406 ft | 413 kts | 147° |
| 2026-05-06 16:38 | 50.11200 | 0.35949 | 25734 ft | 415 kts | 147° |
| 2026-05-06 16:38 | 50.08778 | 0.38433 | 26063 ft | 417 kts | 147° |
| 2026-05-06 16:39 | 50.06377 | 0.40892 | 26382 ft | 418 kts | 147° |
| 2026-05-06 16:39 | 50.03905 | 0.43420 | 26703 ft | 420 kts | 147° |
| 2026-05-06 16:39 | 50.01460 | 0.45917 | 27011 ft | 421 kts | 147° |
| 2026-05-06 16:39 | 49.99021 | 0.48405 | 27309 ft | 423 kts | 147° |
| 2026-05-06 16:40 | 49.96551 | 0.50923 | 27596 ft | 425 kts | 147° |
| 2026-05-06 16:40 | 49.94046 | 0.53473 | 27865 ft | 427 kts | 147° |
| 2026-05-06 16:40 | 49.91569 | 0.55990 | 28117 ft | 429 kts | 147° |
| 2026-05-06 16:40 | 49.89080 | 0.58515 | 28375 ft | 431 kts | 147° |
| 2026-05-06 16:41 | 49.86561 | 0.61114 | 28634 ft | 433 kts | 145° |
| 2026-05-06 16:41 | 49.84140 | 0.63892 | 28895 ft | 435 kts | 141° |
| 2026-05-06 16:41 | 49.81795 | 0.66832 | 29139 ft | 437 kts | 141° |
| 2026-05-06 16:41 | 49.79445 | 0.69796 | 29389 ft | 439 kts | 141° |
| 2026-05-06 16:42 | 49.77069 | 0.72787 | 29642 ft | 440 kts | 141° |
| 2026-05-06 16:42 | 49.74724 | 0.75737 | 29872 ft | 442 kts | 141° |
| 2026-05-06 16:42 | 49.72339 | 0.78734 | 30096 ft | 443 kts | 141° |
| 2026-05-06 16:42 | 49.69936 | 0.81746 | 30328 ft | 445 kts | 141° |
| 2026-05-06 16:43 | 49.67562 | 0.84716 | 30618 ft | 444 kts | 141° |
| 2026-05-06 16:43 | 49.65148 | 0.87732 | 30948 ft | 443 kts | 141° |
| 2026-05-06 16:43 | 49.62769 | 0.90700 | 31232 ft | 443 kts | 141° |
| 2026-05-06 16:43 | 49.60375 | 0.93686 | 31495 ft | 442 kts | 141° |
| 2026-05-06 16:44 | 49.57981 | 0.96667 | 31753 ft | 442 kts | 141° |
| 2026-05-06 16:44 | 49.55599 | 0.99629 | 32015 ft | 441 kts | 141° |
| 2026-05-06 16:44 | 49.53230 | 1.02571 | 32262 ft | 441 kts | 141° |
| 2026-05-06 16:44 | 49.50840 | 1.05537 | 32504 ft | 441 kts | 140° |
| 2026-05-06 16:45 | 49.48470 | 1.08474 | 32741 ft | 440 kts | 140° |
| 2026-05-06 16:45 | 49.46089 | 1.11424 | 32973 ft | 440 kts | 141° |
| 2026-05-06 16:45 | 49.43713 | 1.14360 | 33210 ft | 439 kts | 140° |
| 2026-05-06 16:45 | 49.41363 | 1.17259 | 33434 ft | 439 kts | 140° |
| 2026-05-06 16:46 | 49.38969 | 1.20206 | 33661 ft | 438 kts | 140° |
| 2026-05-06 16:46 | 49.36571 | 1.23155 | 33869 ft | 438 kts | 140° |
| 2026-05-06 16:46 | 49.34210 | 1.26055 | 33963 ft | 440 kts | 140° |
| 2026-05-06 16:47 | 49.29406 | 1.31946 | 34115 ft | 445 kts | 140° |
| 2026-05-06 16:47 | 49.26986 | 1.34907 | 34250 ft | 446 kts | 140° |
| 2026-05-06 16:47 | 49.24574 | 1.37859 | 34419 ft | 445 kts | 140° |
| 2026-05-06 16:47 | 49.22173 | 1.40790 | 34561 ft | 445 kts | 140° |
| 2026-05-06 16:48 | 49.19766 | 1.43728 | 34671 ft | 445 kts | 140° |
| 2026-05-06 16:48 | 49.17348 | 1.46674 | 34797 ft | 446 kts | 140° |
| 2026-05-06 16:48 | 49.14918 | 1.49633 | 34878 ft | 447 kts | 140° |
| 2026-05-06 16:49 | 49.10046 | 1.55550 | 34911 ft | 448 kts | 140° |
| 2026-05-06 16:49 | 49.05186 | 1.61437 | 34907 ft | 447 kts | 140° |
| 2026-05-06 16:50 | 49.00305 | 1.67333 | 34904 ft | 446 kts | 141° |
| 2026-05-06 16:50 | 48.95440 | 1.73194 | 34897 ft | 446 kts | 141° |
| 2026-05-06 16:51 | 48.90587 | 1.79029 | 34896 ft | 446 kts | 141° |
| 2026-05-06 16:51 | 48.85717 | 1.84869 | 34895 ft | 446 kts | 141° |
| 2026-05-06 16:52 | 48.80837 | 1.90706 | 34904 ft | 447 kts | 141° |
| 2026-05-06 16:52 | 48.75976 | 1.96503 | 34873 ft | 447 kts | 141° |
| 2026-05-06 16:53 | 48.71056 | 2.02358 | 34901 ft | 447 kts | 141° |
| 2026-05-06 16:53 | 48.66187 | 2.08141 | 34899 ft | 447 kts | 141° |
| 2026-05-06 16:54 | 48.61303 | 2.13922 | 34888 ft | 447 kts | 141° |
| 2026-05-06 16:54 | 48.56521 | 2.19834 | 34897 ft | 446 kts | 137° |
| 2026-05-06 16:55 | 48.52098 | 2.26384 | 34889 ft | 446 kts | 134° |
| 2026-05-06 16:55 | 48.47718 | 2.33039 | 34884 ft | 446 kts | 134° |
| 2026-05-06 16:56 | 48.43346 | 2.39662 | 34889 ft | 446 kts | 134° |
| 2026-05-06 16:56 | 48.38997 | 2.46232 | 34879 ft | 446 kts | 134° |
| 2026-05-06 16:57 | 48.34627 | 2.52805 | 34885 ft | 446 kts | 135° |
| 2026-05-06 16:57 | 48.29977 | 2.58952 | 34897 ft | 446 kts | 141° |
| 2026-05-06 16:58 | 48.24888 | 2.64227 | 34882 ft | 446 kts | 150° |
| 2026-05-06 16:58 | 48.19493 | 2.68738 | 34883 ft | 445 kts | 151° |
| 2026-05-06 16:59 | 48.14069 | 2.73149 | 34894 ft | 443 kts | 152° |
| 2026-05-06 16:59 | 48.08640 | 2.77447 | 34888 ft | 443 kts | 154° |
| 2026-05-06 17:00 | 48.03033 | 2.81129 | 34897 ft | 444 kts | 157° |
| 2026-05-06 17:00 | 47.97348 | 2.84744 | 34890 ft | 446 kts | 157° |
| 2026-05-06 17:01 | 47.91649 | 2.88364 | 34892 ft | 445 kts | 157° |
| 2026-05-06 17:01 | 47.85953 | 2.91971 | 34907 ft | 444 kts | 157° |
| 2026-05-06 17:02 | 47.80280 | 2.95555 | 34899 ft | 443 kts | 157° |
| 2026-05-06 17:02 | 47.74630 | 2.99117 | 34890 ft | 444 kts | 157° |
| 2026-05-06 17:03 | 47.68944 | 3.02693 | 34901 ft | 444 kts | 157° |
| 2026-05-06 17:03 | 47.63258 | 3.06261 | 34887 ft | 446 kts | 157° |
| 2026-05-06 17:04 | 47.57531 | 3.09846 | 34895 ft | 448 kts | 157° |
| 2026-05-06 17:04 | 47.51814 | 3.13415 | 34894 ft | 449 kts | 157° |
| 2026-05-06 17:05 | 47.46035 | 3.17009 | 34885 ft | 447 kts | 158° |
| 2026-05-06 17:05 | 47.40345 | 3.20541 | 34891 ft | 446 kts | 158° |
| 2026-05-06 17:06 | 47.34645 | 3.24071 | 34899 ft | 445 kts | 158° |
| 2026-05-06 17:06 | 47.28881 | 3.27632 | 34894 ft | 446 kts | 158° |
| 2026-05-06 17:07 | 47.23169 | 3.31154 | 34888 ft | 446 kts | 158° |
| 2026-05-06 17:07 | 47.17478 | 3.34655 | 34888 ft | 446 kts | 158° |
| 2026-05-06 17:08 | 47.11784 | 3.38150 | 34896 ft | 446 kts | 158° |
| 2026-05-06 17:08 | 47.06050 | 3.41661 | 34896 ft | 446 kts | 158° |
| 2026-05-06 17:09 | 47.00313 | 3.45168 | 34893 ft | 447 kts | 158° |
| 2026-05-06 17:09 | 46.94601 | 3.48649 | 34897 ft | 447 kts | 158° |
| 2026-05-06 17:10 | 46.88844 | 3.52153 | 34897 ft | 447 kts | 158° |
| 2026-05-06 17:10 | 46.83107 | 3.55634 | 34894 ft | 446 kts | 158° |
| 2026-05-06 17:11 | 46.77495 | 3.59446 | 34888 ft | 448 kts | 148° |
| 2026-05-06 17:11 | 46.72740 | 3.65280 | 34884 ft | 451 kts | 132° |
| 2026-05-06 17:12 | 46.69300 | 3.73016 | 34883 ft | 453 kts | 115° |
| 2026-05-06 17:12 | 46.67442 | 3.81725 | 34889 ft | 454 kts | 104° |
| 2026-05-06 17:13 | 46.65997 | 3.90627 | 34887 ft | 454 kts | 104° |
| 2026-05-06 17:13 | 46.64489 | 3.99513 | 34883 ft | 454 kts | 105° |
| 2026-05-06 17:14 | 46.62949 | 4.08368 | 34884 ft | 454 kts | 105° |
| 2026-05-06 17:14 | 46.61389 | 4.17298 | 34884 ft | 455 kts | 105° |
| 2026-05-06 17:15 | 46.59838 | 4.26154 | 34880 ft | 456 kts | 105° |
| 2026-05-06 17:15 | 46.58266 | 4.35080 | 34878 ft | 456 kts | 105° |
| 2026-05-06 17:16 | 46.56693 | 4.43965 | 34880 ft | 455 kts | 105° |
| 2026-05-06 17:16 | 46.55117 | 4.52830 | 34877 ft | 455 kts | 106° |
| 2026-05-06 17:17 | 46.53526 | 4.61733 | 34881 ft | 455 kts | 106° |
| 2026-05-06 17:17 | 46.51928 | 4.70640 | 34877 ft | 456 kts | 107° |
| 2026-05-06 17:18 | 46.50316 | 4.79570 | 34876 ft | 456 kts | 107° |
| 2026-05-06 17:18 | 46.48707 | 4.88454 | 34875 ft | 456 kts | 107° |
| 2026-05-06 17:19 | 46.47098 | 4.97288 | 34874 ft | 456 kts | 107° |
| 2026-05-06 17:19 | 46.45464 | 5.06210 | 34878 ft | 457 kts | 107° |
| 2026-05-06 17:20 | 46.43836 | 5.15064 | 34884 ft | 457 kts | 107° |
| 2026-05-06 17:20 | 46.42191 | 5.23980 | 34893 ft | 457 kts | 107° |
| 2026-05-06 17:21 | 46.40451 | 5.32794 | 34893 ft | 455 kts | 111° |
| 2026-05-06 17:21 | 46.37959 | 5.41171 | 34895 ft | 452 kts | 121° |
| 2026-05-06 17:22 | 46.34685 | 5.48796 | 34890 ft | 449 kts | 129° |
| 2026-05-06 17:22 | 46.30745 | 5.55758 | 34894 ft | 447 kts | 133° |
| 2026-05-06 17:23 | 46.26699 | 5.62572 | 34887 ft | 447 kts | 133° |
| 2026-05-06 17:23 | 46.22639 | 5.69412 | 34893 ft | 447 kts | 134° |
| 2026-05-06 17:24 | 46.18565 | 5.76272 | 34894 ft | 447 kts | 134° |
| 2026-05-06 17:24 | 46.14493 | 5.83115 | 34893 ft | 447 kts | 134° |
| 2026-05-06 17:25 | 46.10444 | 5.89903 | 34897 ft | 447 kts | 135° |
| 2026-05-06 17:25 | 46.06387 | 5.96687 | 34902 ft | 446 kts | 135° |
| 2026-05-06 17:26 | 46.02343 | 6.03437 | 34904 ft | 447 kts | 135° |
| 2026-05-06 17:26 | 45.98261 | 6.10231 | 34908 ft | 448 kts | 135° |
| 2026-05-06 17:27 | 45.94178 | 6.17015 | 34940 ft | 448 kts | 135° |
| 2026-05-06 17:27 | 45.92143 | 6.20390 | 34795 ft | 448 kts | 135° |
| 2026-05-06 17:27 | 45.90130 | 6.23725 | 34848 ft | 448 kts | 135° |
| 2026-05-06 17:28 | 45.86026 | 6.30504 | 34900 ft | 448 kts | 135° |
| 2026-05-06 17:28 | 45.81820 | 6.36993 | 34916 ft | 443 kts | 141° |
| 2026-05-06 17:29 | 45.77164 | 6.42733 | 34928 ft | 439 kts | 147° |
| 2026-05-06 17:29 | 45.72247 | 6.47788 | 34913 ft | 437 kts | 149° |
| 2026-05-06 17:30 | 45.67310 | 6.52812 | 34923 ft | 437 kts | 149° |
| 2026-05-06 17:30 | 45.62387 | 6.57808 | 34917 ft | 437 kts | 149° |
| 2026-05-06 17:31 | 45.57423 | 6.62840 | 34923 ft | 437 kts | 149° |
| 2026-05-06 17:31 | 45.52474 | 6.67842 | 34892 ft | 436 kts | 150° |
| 2026-05-06 17:32 | 45.47572 | 6.72784 | 34887 ft | 435 kts | 150° |
| 2026-05-06 17:32 | 45.42626 | 6.77763 | 34865 ft | 434 kts | 150° |
| 2026-05-06 17:33 | 45.37733 | 6.82682 | 34872 ft | 433 kts | 150° |
| 2026-05-06 17:33 | 45.32818 | 6.87603 | 34871 ft | 433 kts | 150° |
| 2026-05-06 17:34 | 45.27919 | 6.92608 | 34857 ft | 435 kts | 148° |
| 2026-05-06 17:34 | 45.23325 | 6.98257 | 34854 ft | 440 kts | 142° |
| 2026-05-06 17:35 | 45.18959 | 7.04281 | 34842 ft | 440 kts | 142° |
| 2026-05-06 17:35 | 45.14587 | 7.10298 | 34859 ft | 440 kts | 142° |
| 2026-05-06 17:36 | 45.08476 | 7.20063 | 34887 ft | 448 kts | 133° |
| 2026-05-06 17:36 | 45.04873 | 7.27279 | 34901 ft | 449 kts | 131° |
| 2026-05-06 17:37 | 45.01304 | 7.34484 | 34896 ft | 450 kts | 131° |
| 2026-05-06 17:37 | 44.97531 | 7.41468 | 34889 ft | 444 kts | 137° |
| 2026-05-06 17:38 | 44.93326 | 7.47773 | 34861 ft | 442 kts | 141° |
| 2026-05-06 17:38 | 44.89051 | 7.53923 | 34835 ft | 442 kts | 141° |
| 2026-05-06 17:39 | 44.84767 | 7.60078 | 34834 ft | 441 kts | 141° |
| 2026-05-06 17:39 | 44.80481 | 7.66227 | 34834 ft | 441 kts | 142° |
| 2026-05-06 17:40 | 44.76192 | 7.72370 | 34838 ft | 440 kts | 142° |
| 2026-05-06 17:40 | 44.71900 | 7.78499 | 34818 ft | 440 kts | 142° |
| 2026-05-06 17:41 | 44.67615 | 7.84607 | 34817 ft | 439 kts | 143° |
| 2026-05-06 17:41 | 44.63324 | 7.90712 | 34809 ft | 440 kts | 143° |
| 2026-05-06 17:42 | 44.59043 | 7.96786 | 34807 ft | 440 kts | 143° |
| 2026-05-06 17:42 | 44.54749 | 8.02865 | 34803 ft | 440 kts | 143° |
| 2026-05-06 17:43 | 44.50471 | 8.08911 | 34806 ft | 440 kts | 143° |
| 2026-05-06 17:43 | 44.46151 | 8.14999 | 34819 ft | 439 kts | 143° |
| 2026-05-06 17:44 | 44.41856 | 8.21041 | 34814 ft | 439 kts | 143° |
| 2026-05-06 17:44 | 44.37558 | 8.27075 | 34820 ft | 439 kts | 143° |
| 2026-05-06 17:45 | 44.33250 | 8.33107 | 34830 ft | 440 kts | 143° |
| 2026-05-06 17:45 | 44.28944 | 8.39125 | 34827 ft | 439 kts | 143° |
| 2026-05-06 17:46 | 44.24645 | 8.45123 | 34838 ft | 438 kts | 143° |
| 2026-05-06 17:46 | 44.20356 | 8.51090 | 34834 ft | 440 kts | 143° |
| 2026-05-06 17:47 | 44.16022 | 8.57105 | 34823 ft | 439 kts | 143° |
| 2026-05-06 17:47 | 44.11687 | 8.63108 | 34833 ft | 441 kts | 143° |
| 2026-05-06 17:48 | 44.07359 | 8.69091 | 34839 ft | 440 kts | 144° |
| 2026-05-06 17:48 | 44.03017 | 8.75079 | 34846 ft | 440 kts | 144° |
| 2026-05-06 17:49 | 43.98692 | 8.81027 | 34847 ft | 440 kts | 144° |
| 2026-05-06 17:49 | 43.94342 | 8.87003 | 34846 ft | 440 kts | 144° |
| 2026-05-06 17:50 | 43.90006 | 8.92942 | 34850 ft | 440 kts | 144° |
| 2026-05-06 17:50 | 43.85642 | 8.98910 | 34850 ft | 440 kts | 144° |
| 2026-05-06 17:51 | 43.81311 | 9.04814 | 34855 ft | 440 kts | 144° |
| 2026-05-06 17:51 | 43.76957 | 9.10742 | 34860 ft | 440 kts | 144° |
| 2026-05-06 17:52 | 43.72605 | 9.16657 | 34870 ft | 440 kts | 143° |
| 2026-05-06 17:52 | 43.68244 | 9.22568 | 34865 ft | 439 kts | 143° |
| 2026-05-06 17:53 | 43.63893 | 9.28456 | 34874 ft | 439 kts | 143° |
| 2026-05-06 17:53 | 43.59542 | 9.34329 | 34868 ft | 439 kts | 144° |
| 2026-05-06 17:54 | 43.55193 | 9.40185 | 34879 ft | 439 kts | 143° |
| 2026-05-06 17:54 | 43.50833 | 9.46043 | 34890 ft | 440 kts | 143° |
| 2026-05-06 17:55 | 43.46467 | 9.51899 | 34893 ft | 440 kts | 143° |
| 2026-05-06 17:55 | 43.42080 | 9.57768 | 34894 ft | 440 kts | 143° |
| 2026-05-06 17:56 | 43.37716 | 9.63594 | 34895 ft | 440 kts | 143° |
| 2026-05-06 17:56 | 43.33318 | 9.69460 | 34894 ft | 440 kts | 144° |
| 2026-05-06 17:57 | 43.28940 | 9.75286 | 34891 ft | 440 kts | 144° |
| 2026-05-06 17:57 | 43.24568 | 9.81066 | 34891 ft | 439 kts | 145° |
| 2026-05-06 17:58 | 43.19926 | 9.86357 | 34889 ft | 431 kts | 152° |
| 2026-05-06 17:58 | 43.14960 | 9.90826 | 34890 ft | 426 kts | 158° |
| 2026-05-06 17:59 | 43.09717 | 9.94488 | 34897 ft | 422 kts | 162° |
| 2026-05-06 17:59 | 43.04412 | 9.97858 | 34886 ft | 422 kts | 162° |
| 2026-05-06 18:00 | 42.99088 | 10.01241 | 34891 ft | 422 kts | 162° |
| 2026-05-06 18:00 | 42.93781 | 10.04608 | 34888 ft | 422 kts | 162° |
| 2026-05-06 18:01 | 42.88456 | 10.07979 | 34889 ft | 421 kts | 162° |
| 2026-05-06 18:01 | 42.83125 | 10.11347 | 34894 ft | 422 kts | 162° |
| 2026-05-06 18:02 | 42.77796 | 10.14707 | 34891 ft | 423 kts | 162° |
| 2026-05-06 18:02 | 42.72504 | 10.18039 | 34894 ft | 422 kts | 162° |
| 2026-05-06 18:03 | 42.67181 | 10.21385 | 34897 ft | 421 kts | 162° |
| 2026-05-06 18:03 | 42.61855 | 10.24723 | 34898 ft | 421 kts | 162° |
| 2026-05-06 18:04 | 42.56557 | 10.28040 | 34897 ft | 421 kts | 162° |
| 2026-05-06 18:04 | 42.51239 | 10.31362 | 34900 ft | 421 kts | 162° |
| 2026-05-06 18:05 | 42.45974 | 10.34645 | 34900 ft | 420 kts | 162° |
| 2026-05-06 18:05 | 42.40662 | 10.37951 | 34907 ft | 421 kts | 162° |
| 2026-05-06 18:06 | 42.35356 | 10.41247 | 34902 ft | 420 kts | 162° |
| 2026-05-06 18:06 | 42.30045 | 10.44543 | 34909 ft | 420 kts | 162° |
| 2026-05-06 18:07 | 42.24735 | 10.47827 | 34908 ft | 420 kts | 162° |
| 2026-05-06 18:07 | 42.19420 | 10.51115 | 34910 ft | 420 kts | 162° |
| 2026-05-06 18:08 | 42.14128 | 10.54378 | 34908 ft | 421 kts | 162° |
| 2026-05-06 18:08 | 42.08826 | 10.57643 | 34911 ft | 420 kts | 162° |
| 2026-05-06 18:09 | 42.03522 | 10.60901 | 34914 ft | 418 kts | 162° |
| 2026-05-06 18:09 | 41.98222 | 10.64151 | 34915 ft | 419 kts | 162° |
| 2026-05-06 18:10 | 41.92936 | 10.67387 | 34920 ft | 418 kts | 162° |
| 2026-05-06 18:10 | 41.87666 | 10.70606 | 34926 ft | 418 kts | 162° |
| 2026-05-06 18:11 | 41.82398 | 10.73818 | 34926 ft | 417 kts | 162° |
| 2026-05-06 18:11 | 41.77120 | 10.77031 | 34930 ft | 417 kts | 162° |
| 2026-05-06 18:12 | 41.71831 | 10.80247 | 34936 ft | 417 kts | 162° |
| 2026-05-06 18:12 | 41.66562 | 10.83442 | 34940 ft | 416 kts | 162° |
| 2026-05-06 18:13 | 41.61292 | 10.86636 | 34938 ft | 416 kts | 162° |
| 2026-05-06 18:13 | 41.56061 | 10.89797 | 34942 ft | 414 kts | 162° |
| 2026-05-06 18:14 | 41.50800 | 10.92971 | 34944 ft | 414 kts | 162° |
| 2026-05-06 18:14 | 41.45575 | 10.96117 | 34944 ft | 413 kts | 162° |
| 2026-05-06 18:15 | 41.40349 | 10.99259 | 34947 ft | 414 kts | 162° |
| 2026-05-06 18:15 | 41.35099 | 11.02406 | 34949 ft | 415 kts | 162° |
| 2026-05-06 18:16 | 41.29851 | 11.05551 | 34949 ft | 414 kts | 162° |
| 2026-05-06 18:16 | 41.24583 | 11.08699 | 34952 ft | 414 kts | 162° |
| 2026-05-06 18:17 | 41.19348 | 11.11828 | 34955 ft | 415 kts | 162° |
| 2026-05-06 18:17 | 41.14079 | 11.14966 | 34953 ft | 414 kts | 162° |
| 2026-05-06 18:18 | 41.08849 | 11.18076 | 34957 ft | 414 kts | 162° |
| 2026-05-06 18:18 | 41.03585 | 11.21202 | 34958 ft | 416 kts | 162° |
| 2026-05-06 18:19 | 40.98297 | 11.24334 | 34962 ft | 416 kts | 162° |
| 2026-05-06 18:19 | 40.93022 | 11.27456 | 34960 ft | 417 kts | 161° |
| 2026-05-06 18:20 | 40.87755 | 11.30569 | 34964 ft | 417 kts | 161° |
| 2026-05-06 18:20 | 40.82437 | 11.33704 | 34965 ft | 418 kts | 161° |
| 2026-05-06 18:21 | 40.77162 | 11.36806 | 34963 ft | 417 kts | 161° |
| 2026-05-06 18:21 | 40.71877 | 11.39912 | 34963 ft | 417 kts | 161° |
| 2026-05-06 18:22 | 40.66560 | 11.43031 | 34966 ft | 418 kts | 161° |
| 2026-05-06 18:22 | 40.61243 | 11.46145 | 34968 ft | 419 kts | 161° |
| 2026-05-06 18:23 | 40.55949 | 11.49239 | 34966 ft | 419 kts | 161° |
| 2026-05-06 18:23 | 40.50635 | 11.52339 | 34968 ft | 419 kts | 161° |
| 2026-05-06 18:24 | 40.45293 | 11.55452 | 34970 ft | 419 kts | 161° |
| 2026-05-06 18:24 | 40.39978 | 11.58541 | 34970 ft | 420 kts | 161° |
| 2026-05-06 18:25 | 40.34665 | 11.61626 | 34972 ft | 420 kts | 161° |
| 2026-05-06 18:25 | 40.29330 | 11.64720 | 34974 ft | 421 kts | 161° |
| 2026-05-06 18:26 | 40.23968 | 11.67821 | 34972 ft | 421 kts | 161° |
| 2026-05-06 18:26 | 40.18626 | 11.70906 | 34970 ft | 422 kts | 161° |
| 2026-05-06 18:27 | 40.13264 | 11.73997 | 34972 ft | 421 kts | 161° |
| 2026-05-06 18:27 | 40.07919 | 11.77074 | 34969 ft | 423 kts | 161° |
| 2026-05-06 18:28 | 40.02513 | 11.80180 | 34973 ft | 422 kts | 161° |
| 2026-05-06 18:28 | 39.97170 | 11.83248 | 34969 ft | 422 kts | 161° |
| 2026-05-06 18:29 | 39.91791 | 11.86328 | 34964 ft | 423 kts | 161° |
| 2026-05-06 18:29 | 39.86386 | 11.89418 | 34966 ft | 423 kts | 161° |
| 2026-05-06 18:30 | 39.81012 | 11.92447 | 34966 ft | 423 kts | 161° |
| 2026-05-06 18:30 | 39.75621 | 11.95476 | 34963 ft | 424 kts | 161° |
| 2026-05-06 18:31 | 39.70179 | 11.98535 | 34964 ft | 425 kts | 161° |
| 2026-05-06 18:31 | 39.64786 | 12.01562 | 34965 ft | 425 kts | 161° |
| 2026-05-06 18:32 | 39.59353 | 12.04606 | 34966 ft | 426 kts | 161° |
| 2026-05-06 18:32 | 39.53899 | 12.07657 | 34964 ft | 427 kts | 161° |
| 2026-05-06 18:33 | 39.48455 | 12.10697 | 34961 ft | 426 kts | 161° |
| 2026-05-06 18:33 | 39.43032 | 12.13720 | 34959 ft | 427 kts | 161° |
| 2026-05-06 18:34 | 39.37581 | 12.16756 | 34962 ft | 428 kts | 161° |
| 2026-05-06 18:34 | 39.32077 | 12.19816 | 34959 ft | 429 kts | 161° |
| 2026-05-06 18:35 | 39.26620 | 12.22841 | 34957 ft | 429 kts | 161° |
| 2026-05-06 18:35 | 39.21171 | 12.25860 | 34956 ft | 429 kts | 161° |
| 2026-05-06 18:36 | 39.15699 | 12.28886 | 34958 ft | 429 kts | 161° |
| 2026-05-06 18:36 | 39.10213 | 12.31914 | 34956 ft | 431 kts | 161° |
| 2026-05-06 18:37 | 39.04687 | 12.34962 | 34953 ft | 431 kts | 160° |
| 2026-05-06 18:37 | 38.99204 | 12.37981 | 34947 ft | 431 kts | 161° |
| 2026-05-06 18:38 | 38.93668 | 12.41022 | 34942 ft | 432 kts | 161° |
| 2026-05-06 18:38 | 38.88132 | 12.44086 | 34947 ft | 435 kts | 159° |
| 2026-05-06 18:39 | 38.82750 | 12.47665 | 34944 ft | 438 kts | 155° |
| 2026-05-06 18:40 | 38.74762 | 12.53322 | 34933 ft | 439 kts | 155° |
| 2026-05-06 18:40 | 38.69399 | 12.57109 | 34942 ft | 442 kts | 156° |
| 2026-05-06 18:41 | 38.64059 | 12.60875 | 34940 ft | 441 kts | 156° |
| 2026-05-06 18:41 | 38.58676 | 12.64663 | 35035 ft | 444 kts | 156° |
| 2026-05-06 18:42 | 38.53274 | 12.68460 | 34962 ft | 444 kts | 156° |
| 2026-05-06 18:42 | 38.47868 | 12.72252 | 34939 ft | 444 kts | 156° |
| 2026-05-06 18:43 | 38.42460 | 12.76044 | 34935 ft | 445 kts | 157° |
| 2026-05-06 18:43 | 38.37029 | 12.79839 | 34938 ft | 446 kts | 157° |
| 2026-05-06 18:44 | 38.31608 | 12.83625 | 34939 ft | 446 kts | 156° |
| 2026-05-06 18:44 | 38.26128 | 12.87445 | 34938 ft | 447 kts | 156° |
| 2026-05-06 18:45 | 38.20695 | 12.91227 | 34928 ft | 449 kts | 157° |
| 2026-05-06 18:45 | 38.15183 | 12.95052 | 34929 ft | 450 kts | 156° |
| 2026-05-06 18:46 | 38.09696 | 12.98855 | 34944 ft | 452 kts | 156° |
| 2026-05-06 18:46 | 38.04172 | 13.02674 | 34927 ft | 452 kts | 156° |
| 2026-05-06 18:47 | 37.98655 | 13.06491 | 34937 ft | 454 kts | 157° |
| 2026-05-06 18:47 | 37.93123 | 13.10310 | 34943 ft | 454 kts | 158° |
| 2026-05-06 18:48 | 37.87560 | 13.14133 | 34945 ft | 458 kts | 157° |
| 2026-05-06 18:48 | 37.81973 | 13.17980 | 34951 ft | 459 kts | 158° |
| 2026-05-06 18:49 | 37.76334 | 13.21843 | 34955 ft | 461 kts | 158° |
| 2026-05-06 18:49 | 37.70692 | 13.25709 | 34963 ft | 460 kts | 158° |
| 2026-05-06 18:50 | 37.65037 | 13.29576 | 34920 ft | 459 kts | 158° |
| 2026-05-06 18:50 | 37.62257 | 13.31480 | 34533 ft | 456 kts | 158° |
| 2026-05-06 18:50 | 37.59465 | 13.33382 | 33804 ft | 456 kts | 158° |
| 2026-05-06 18:50 | 37.56699 | 13.35263 | 33173 ft | 455 kts | 158° |
| 2026-05-06 18:51 | 37.53896 | 13.37167 | 32582 ft | 453 kts | 158° |
| 2026-05-06 18:51 | 37.51133 | 13.39045 | 31984 ft | 452 kts | 157° |
| 2026-05-06 18:51 | 37.48378 | 13.40913 | 31392 ft | 450 kts | 156° |
| 2026-05-06 18:51 | 37.45636 | 13.42778 | 30767 ft | 448 kts | 156° |
| 2026-05-06 18:52 | 37.42943 | 13.44605 | 30099 ft | 447 kts | 155° |
| 2026-05-06 18:52 | 37.40212 | 13.46457 | 29478 ft | 444 kts | 155° |
| 2026-05-06 18:52 | 37.37499 | 13.48302 | 29001 ft | 438 kts | 155° |
| 2026-05-06 18:52 | 37.34855 | 13.50098 | 28480 ft | 434 kts | 155° |
| 2026-05-06 18:53 | 37.32202 | 13.51899 | 27929 ft | 431 kts | 155° |
| 2026-05-06 18:53 | 37.29565 | 13.53682 | 27382 ft | 427 kts | 155° |
| 2026-05-06 18:53 | 37.26968 | 13.55440 | 26865 ft | 423 kts | 155° |
| 2026-05-06 18:53 | 37.24413 | 13.57164 | 26327 ft | 420 kts | 155° |
| 2026-05-06 18:54 | 37.21867 | 13.58883 | 25797 ft | 416 kts | 155° |
| 2026-05-06 18:54 | 37.19331 | 13.60594 | 25261 ft | 413 kts | 155° |
| 2026-05-06 18:54 | 37.16797 | 13.62300 | 24761 ft | 408 kts | 155° |
| 2026-05-06 18:54 | 37.14332 | 13.63959 | 24263 ft | 404 kts | 155° |
| 2026-05-06 18:55 | 37.11807 | 13.65528 | 23771 ft | 398 kts | 160° |
| 2026-05-06 18:55 | 37.09280 | 13.66880 | 23279 ft | 393 kts | 162° |
| 2026-05-06 18:55 | 37.06747 | 13.68187 | 22802 ft | 389 kts | 162° |
| 2026-05-06 18:55 | 37.04269 | 13.69460 | 22290 ft | 386 kts | 162° |
| 2026-05-06 18:56 | 37.01810 | 13.70726 | 21813 ft | 383 kts | 162° |
| 2026-05-06 18:56 | 36.99352 | 13.71992 | 21341 ft | 379 kts | 162° |
| 2026-05-06 18:56 | 36.96923 | 13.73239 | 20838 ft | 377 kts | 162° |
| 2026-05-06 18:56 | 36.94529 | 13.74469 | 20362 ft | 374 kts | 162° |
| 2026-05-06 18:57 | 36.92116 | 13.75709 | 19901 ft | 370 kts | 162° |
| 2026-05-06 18:57 | 36.89757 | 13.76918 | 19439 ft | 368 kts | 163° |
| 2026-05-06 18:57 | 36.87338 | 13.78160 | 18971 ft | 365 kts | 163° |
| 2026-05-06 18:57 | 36.85001 | 13.79357 | 18527 ft | 362 kts | 163° |
| 2026-05-06 18:58 | 36.82677 | 13.80548 | 18063 ft | 360 kts | 163° |
| 2026-05-06 18:58 | 36.80380 | 13.81722 | 17605 ft | 358 kts | 163° |
| 2026-05-06 18:58 | 36.78103 | 13.82885 | 17187 ft | 354 kts | 163° |
| 2026-05-06 18:58 | 36.75822 | 13.84052 | 16751 ft | 351 kts | 163° |
| 2026-05-06 18:59 | 36.73579 | 13.85197 | 16319 ft | 349 kts | 163° |
| 2026-05-06 18:59 | 36.71330 | 13.86344 | 15883 ft | 346 kts | 163° |
| 2026-05-06 18:59 | 36.69132 | 13.87465 | 15465 ft | 343 kts | 162° |
| 2026-05-06 18:59 | 36.66939 | 13.88583 | 15048 ft | 340 kts | 162° |
| 2026-05-06 19:00 | 36.64743 | 13.89702 | 14605 ft | 338 kts | 162° |
| 2026-05-06 19:00 | 36.62587 | 13.90802 | 14180 ft | 336 kts | 162° |
| 2026-05-06 19:00 | 36.60462 | 13.91887 | 13802 ft | 320 kts | 162° |
| 2026-05-06 19:00 | 36.58458 | 13.92914 | 13455 ft | 306 kts | 162° |
| 2026-05-06 19:01 | 36.56530 | 13.93894 | 13246 ft | 296 kts | 162° |
| 2026-05-06 19:01 | 36.54646 | 13.94850 | 12987 ft | 290 kts | 162° |
| 2026-05-06 19:01 | 36.52782 | 13.95795 | 12640 ft | 288 kts | 162° |
| 2026-05-06 19:01 | 36.50937 | 13.96728 | 12294 ft | 287 kts | 162° |
| 2026-05-06 19:02 | 36.49058 | 13.97596 | 11944 ft | 284 kts | 165° |
| 2026-05-06 19:02 | 36.47203 | 13.98373 | 11623 ft | 282 kts | 165° |
| 2026-05-06 19:02 | 36.45352 | 13.99150 | 11298 ft | 280 kts | 165° |
| 2026-05-06 19:02 | 36.43514 | 13.99920 | 10949 ft | 279 kts | 165° |
| 2026-05-06 19:03 | 36.41663 | 14.00695 | 10625 ft | 277 kts | 165° |
| 2026-05-06 19:03 | 36.39854 | 14.01452 | 10304 ft | 275 kts | 164° |
| 2026-05-06 19:03 | 36.38039 | 14.02213 | 9973 ft | 274 kts | 164° |
| 2026-05-06 19:03 | 36.36253 | 14.02959 | 9638 ft | 273 kts | 164° |
| 2026-05-06 19:04 | 36.34448 | 14.03716 | 9317 ft | 271 kts | 163° |
| 2026-05-06 19:04 | 36.32670 | 14.04457 | 8969 ft | 270 kts | 163° |
| 2026-05-06 19:04 | 36.30892 | 14.05199 | 8617 ft | 270 kts | 163° |
| 2026-05-06 19:04 | 36.29114 | 14.05943 | 8295 ft | 268 kts | 163° |
| 2026-05-06 19:05 | 36.27367 | 14.06673 | 7977 ft | 266 kts | 162° |
| 2026-05-06 19:05 | 36.25596 | 14.07412 | 7641 ft | 265 kts | 162° |
| 2026-05-06 19:05 | 36.23870 | 14.08132 | 7325 ft | 264 kts | 162° |
| 2026-05-06 19:05 | 36.22114 | 14.08865 | 7004 ft | 262 kts | 162° |
| 2026-05-06 19:06 | 36.20387 | 14.09585 | 6669 ft | 261 kts | 161° |
| 2026-05-06 19:06 | 36.18687 | 14.10293 | 6374 ft | 259 kts | 161° |
| 2026-05-06 19:06 | 36.17001 | 14.10996 | 6222 ft | 251 kts | 161° |
| 2026-05-06 19:06 | 36.15352 | 14.11693 | 5990 ft | 246 kts | 158° |
| 2026-05-06 19:07 | 36.13883 | 14.12730 | 5676 ft | 246 kts | 142° |
| 2026-05-06 19:07 | 36.12643 | 14.14175 | 5399 ft | 244 kts | 134° |
| 2026-05-06 19:07 | 36.11501 | 14.15710 | 5125 ft | 242 kts | 133° |
| 2026-05-06 19:07 | 36.10359 | 14.17243 | 4845 ft | 240 kts | 134° |
| 2026-05-06 19:08 | 36.09223 | 14.18727 | 4550 ft | 238 kts | 134° |
| 2026-05-06 19:08 | 36.08071 | 14.20196 | 4280 ft | 235 kts | 134° |
| 2026-05-06 19:08 | 36.06930 | 14.21624 | 4030 ft | 232 kts | 135° |
| 2026-05-06 19:08 | 36.05809 | 14.23011 | 3777 ft | 229 kts | 134° |
| 2026-05-06 19:09 | 36.04675 | 14.24406 | 3504 ft | 227 kts | 135° |
| 2026-05-06 19:09 | 36.03558 | 14.25775 | 3232 ft | 225 kts | 134° |
| 2026-05-06 19:09 | 36.02465 | 14.27114 | 3014 ft | 222 kts | 134° |
| 2026-05-06 19:09 | 36.01369 | 14.28458 | 3001 ft | 223 kts | 134° |
| 2026-05-06 19:10 | 36.00251 | 14.29832 | 3001 ft | 224 kts | 134° |
| 2026-05-06 19:10 | 35.99159 | 14.31175 | 3001 ft | 223 kts | 134° |
| 2026-05-06 19:10 | 35.98063 | 14.32525 | 3003 ft | 224 kts | 134° |
| 2026-05-06 19:10 | 35.96951 | 14.33895 | 3002 ft | 223 kts | 134° |
| 2026-05-06 19:11 | 35.95852 | 14.35251 | 2961 ft | 223 kts | 134° |
| 2026-05-06 19:11 | 35.94761 | 14.36599 | 2734 ft | 223 kts | 134° |
| 2026-05-06 19:11 | 35.93671 | 14.37944 | 2439 ft | 222 kts | 134° |
| 2026-05-06 19:11 | 35.92579 | 14.39294 | 2151 ft | 221 kts | 133° |
| 2026-05-06 19:12 | 35.91538 | 14.40582 | 1864 ft | 206 kts | 134° |
| 2026-05-06 19:12 | 35.90563 | 14.41789 | 1606 ft | 195 kts | 133° |
| 2026-05-06 19:12 | 35.89638 | 14.42932 | 1350 ft | 180 kts | 133° |
| 2026-05-06 19:12 | 35.88787 | 14.43984 | 1200 ft | 161 kts | 133° |
| 2026-05-06 19:13 | 35.88036 | 14.44913 | 988 ft | 149 kts | 131° |
| 2026-05-06 19:13 | 35.87327 | 14.45790 | 751 ft | 137 kts | 131° |
| 2026-05-06 19:13 | 35.86688 | 14.46585 | 557 ft | 124 kts | 130° |
| 2026-05-06 19:13 | 35.86086 | 14.47319 | 412 ft | 121 kts | 130° |
| 2026-05-06 19:14 | 35.85499 | 14.48054 | 289 ft | 121 kts | 129° |
| 2026-05-06 19:14 | 35.84957 | 14.48740 | 262 ft | 79 kts | 133° |
| 2026-05-06 19:14 | 35.84698 | 14.49055 | 255 ft | 44 kts | 133° |
| 2026-05-06 19:14 | 35.84548 | 14.49247 | 252 ft | 26 kts | 126° |
| 2026-05-06 19:15 | 35.84463 | 14.49424 | 249 ft | 22 kts | 109° |
| 2026-05-06 19:15 | 35.84468 | 14.49562 | 248 ft | 16 kts | 35° |
| 2026-05-06 19:15 | 35.84554 | 14.49540 | 248 ft | 12 kts | 339° |
| 2026-05-06 19:15 | 35.84631 | 14.49573 | 247 ft | 12 kts | 15° |
| 2026-05-06 19:16 | 35.84710 | 14.49547 | 247 ft | 12 kts | 320° |
| 2026-05-06 19:16 | 35.84769 | 14.49479 | 247 ft | 11 kts | 316° |
| 2026-05-06 19:16 | 35.84833 | 14.49456 | 247 ft | 9 kts | 360° |
| 2026-05-06 19:16 | 35.84859 | 14.49456 | 247 ft | 0 kts | 0° |